<?xml version="1.0" encoding="UTF-8" standalone="no" ?>
<gpx xmlns="http://www.topografix.com/GPX/1/1" xmlns:xsi="http://www.w3.org/2001/XMLSchema-instance" xsi:schemaLocation="http://www.topografix.com/GPX/1/1 http://www.topografix.com/GPX/1/1/gpx.xsd" version="1.1" creator="VisuGPX - https://www.visugpx.com">
  <metadata>
    <name>Even series run</name>
  </metadata>
  <trk>
    <name><![CDATA[Even series run 3000 😉]]></name>
    <trkseg>
      <trkpt lat="47.07244" lon="5.46991">
        <ele>197.5</ele>
        <time>2020-05-27T10:38:55Z</time>
      </trkpt>
      <trkpt lat="47.07242" lon="5.4699">
        <ele>197.5</ele>
        <time>2020-05-27T10:38:56Z</time>
      </trkpt>
      <trkpt lat="47.0724" lon="5.46989">
        <ele>197.5</ele>
        <time>2020-05-27T10:38:57Z</time>
      </trkpt>
      <trkpt lat="47.07236" lon="5.46985">
        <ele>197.5</ele>
        <time>2020-05-27T10:38:58Z</time>
      </trkpt>
      <trkpt lat="47.07232" lon="5.46981">
        <ele>197.5</ele>
        <time>2020-05-27T10:38:59Z</time>
      </trkpt>
      <trkpt lat="47.07226" lon="5.46977">
        <ele>197.4</ele>
        <time>2020-05-27T10:39:00Z</time>
      </trkpt>
      <trkpt lat="47.07221" lon="5.46972">
        <ele>197.4</ele>
        <time>2020-05-27T10:39:01Z</time>
      </trkpt>
      <trkpt lat="47.07215" lon="5.46968">
        <ele>197.4</ele>
        <time>2020-05-27T10:39:02Z</time>
      </trkpt>
      <trkpt lat="47.07209" lon="5.46963">
        <ele>197.4</ele>
        <time>2020-05-27T10:39:03Z</time>
      </trkpt>
      <trkpt lat="47.07203" lon="5.46959">
        <ele>197.4</ele>
        <time>2020-05-27T10:39:04Z</time>
      </trkpt>
      <trkpt lat="47.07198" lon="5.46954">
        <ele>197.4</ele>
        <time>2020-05-27T10:39:05Z</time>
      </trkpt>
      <trkpt lat="47.07193" lon="5.46949">
        <ele>197.5</ele>
        <time>2020-05-27T10:39:06Z</time>
      </trkpt>
      <trkpt lat="47.07189" lon="5.46943">
        <ele>197.5</ele>
        <time>2020-05-27T10:39:07Z</time>
      </trkpt>
      <trkpt lat="47.07184" lon="5.46937">
        <ele>197.5</ele>
        <time>2020-05-27T10:39:08Z</time>
      </trkpt>
      <trkpt lat="47.07179" lon="5.46932">
        <ele>197.5</ele>
        <time>2020-05-27T10:39:09Z</time>
      </trkpt>
      <trkpt lat="47.07174" lon="5.46927">
        <ele>197.5</ele>
        <time>2020-05-27T10:39:10Z</time>
      </trkpt>
      <trkpt lat="47.07169" lon="5.46923">
        <ele>197.5</ele>
        <time>2020-05-27T10:39:11Z</time>
      </trkpt>
      <trkpt lat="47.07164" lon="5.46919">
        <ele>197.5</ele>
        <time>2020-05-27T10:39:12Z</time>
      </trkpt>
      <trkpt lat="47.07159" lon="5.46914">
        <ele>197.5</ele>
        <time>2020-05-27T10:39:13Z</time>
      </trkpt>
      <trkpt lat="47.07154" lon="5.4691">
        <ele>197.5</ele>
        <time>2020-05-27T10:39:14Z</time>
      </trkpt>
      <trkpt lat="47.07148" lon="5.46905">
        <ele>197.5</ele>
        <time>2020-05-27T10:39:15Z</time>
      </trkpt>
      <trkpt lat="47.07143" lon="5.46901">
        <ele>197.5</ele>
        <time>2020-05-27T10:39:16Z</time>
      </trkpt>
      <trkpt lat="47.07138" lon="5.46896">
        <ele>197.5</ele>
        <time>2020-05-27T10:39:17Z</time>
      </trkpt>
      <trkpt lat="47.07133" lon="5.46892">
        <ele>197.5</ele>
        <time>2020-05-27T10:39:18Z</time>
      </trkpt>
      <trkpt lat="47.07128" lon="5.46888">
        <ele>197.4</ele>
        <time>2020-05-27T10:39:19Z</time>
      </trkpt>
      <trkpt lat="47.07123" lon="5.46884">
        <ele>197.4</ele>
        <time>2020-05-27T10:39:20Z</time>
      </trkpt>
      <trkpt lat="47.07118" lon="5.4688">
        <ele>197.4</ele>
        <time>2020-05-27T10:39:21Z</time>
      </trkpt>
      <trkpt lat="47.07113" lon="5.46876">
        <ele>197.5</ele>
        <time>2020-05-27T10:39:22Z</time>
      </trkpt>
      <trkpt lat="47.07108" lon="5.46872">
        <ele>197.5</ele>
        <time>2020-05-27T10:39:23Z</time>
      </trkpt>
      <trkpt lat="47.07102" lon="5.46869">
        <ele>197.5</ele>
        <time>2020-05-27T10:39:24Z</time>
      </trkpt>
      <trkpt lat="47.07097" lon="5.46865">
        <ele>197.5</ele>
        <time>2020-05-27T10:39:25Z</time>
      </trkpt>
      <trkpt lat="47.07092" lon="5.46861">
        <ele>197.6</ele>
        <time>2020-05-27T10:39:26Z</time>
      </trkpt>
      <trkpt lat="47.07087" lon="5.46857">
        <ele>197.6</ele>
        <time>2020-05-27T10:39:27Z</time>
      </trkpt>
      <trkpt lat="47.07082" lon="5.46852">
        <ele>197.6</ele>
        <time>2020-05-27T10:39:28Z</time>
      </trkpt>
      <trkpt lat="47.07077" lon="5.46848">
        <ele>197.6</ele>
        <time>2020-05-27T10:39:29Z</time>
      </trkpt>
      <trkpt lat="47.07072" lon="5.46845">
        <ele>197.6</ele>
        <time>2020-05-27T10:39:30Z</time>
      </trkpt>
      <trkpt lat="47.07067" lon="5.4684">
        <ele>197.6</ele>
        <time>2020-05-27T10:39:31Z</time>
      </trkpt>
      <trkpt lat="47.07062" lon="5.46836">
        <ele>197.6</ele>
        <time>2020-05-27T10:39:32Z</time>
      </trkpt>
      <trkpt lat="47.07057" lon="5.46833">
        <ele>197.7</ele>
        <time>2020-05-27T10:39:33Z</time>
      </trkpt>
      <trkpt lat="47.07052" lon="5.46829">
        <ele>197.7</ele>
        <time>2020-05-27T10:39:34Z</time>
      </trkpt>
      <trkpt lat="47.07047" lon="5.46825">
        <ele>197.7</ele>
        <time>2020-05-27T10:39:35Z</time>
      </trkpt>
      <trkpt lat="47.07041" lon="5.46822">
        <ele>197.7</ele>
        <time>2020-05-27T10:39:36Z</time>
      </trkpt>
      <trkpt lat="47.07036" lon="5.46818">
        <ele>197.7</ele>
        <time>2020-05-27T10:39:37Z</time>
      </trkpt>
      <trkpt lat="47.07031" lon="5.46815">
        <ele>197.6</ele>
        <time>2020-05-27T10:39:38Z</time>
      </trkpt>
      <trkpt lat="47.07026" lon="5.46811">
        <ele>197.6</ele>
        <time>2020-05-27T10:39:39Z</time>
      </trkpt>
      <trkpt lat="47.0702" lon="5.46808">
        <ele>197.6</ele>
        <time>2020-05-27T10:39:40Z</time>
      </trkpt>
      <trkpt lat="47.07015" lon="5.46804">
        <ele>197.6</ele>
        <time>2020-05-27T10:39:41Z</time>
      </trkpt>
      <trkpt lat="47.07011" lon="5.46799">
        <ele>197.6</ele>
        <time>2020-05-27T10:39:42Z</time>
      </trkpt>
      <trkpt lat="47.07006" lon="5.46795">
        <ele>197.6</ele>
        <time>2020-05-27T10:39:43Z</time>
      </trkpt>
      <trkpt lat="47.07001" lon="5.46791">
        <ele>197.5</ele>
        <time>2020-05-27T10:39:44Z</time>
      </trkpt>
      <trkpt lat="47.06996" lon="5.46787">
        <ele>197.5</ele>
        <time>2020-05-27T10:39:45Z</time>
      </trkpt>
      <trkpt lat="47.06991" lon="5.46783">
        <ele>197.5</ele>
        <time>2020-05-27T10:39:46Z</time>
      </trkpt>
      <trkpt lat="47.06987" lon="5.46779">
        <ele>197.5</ele>
        <time>2020-05-27T10:39:47Z</time>
      </trkpt>
      <trkpt lat="47.06982" lon="5.46775">
        <ele>197.5</ele>
        <time>2020-05-27T10:39:48Z</time>
      </trkpt>
      <trkpt lat="47.06977" lon="5.46771">
        <ele>197.5</ele>
        <time>2020-05-27T10:39:49Z</time>
      </trkpt>
      <trkpt lat="47.06973" lon="5.46767">
        <ele>197.4</ele>
        <time>2020-05-27T10:39:50Z</time>
      </trkpt>
      <trkpt lat="47.06968" lon="5.46763">
        <ele>197.4</ele>
        <time>2020-05-27T10:39:51Z</time>
      </trkpt>
      <trkpt lat="47.06963" lon="5.46759">
        <ele>197.4</ele>
        <time>2020-05-27T10:39:52Z</time>
      </trkpt>
      <trkpt lat="47.06958" lon="5.46755">
        <ele>197.4</ele>
        <time>2020-05-27T10:39:53Z</time>
      </trkpt>
      <trkpt lat="47.06953" lon="5.46752">
        <ele>197.4</ele>
        <time>2020-05-27T10:39:54Z</time>
      </trkpt>
      <trkpt lat="47.06949" lon="5.46748">
        <ele>197.4</ele>
        <time>2020-05-27T10:39:55Z</time>
      </trkpt>
      <trkpt lat="47.06944" lon="5.46744">
        <ele>197.4</ele>
        <time>2020-05-27T10:39:56Z</time>
      </trkpt>
      <trkpt lat="47.06939" lon="5.46739">
        <ele>197.4</ele>
        <time>2020-05-27T10:39:57Z</time>
      </trkpt>
      <trkpt lat="47.06935" lon="5.46735">
        <ele>197.5</ele>
        <time>2020-05-27T10:39:58Z</time>
      </trkpt>
      <trkpt lat="47.0693" lon="5.46731">
        <ele>197.5</ele>
        <time>2020-05-27T10:39:59Z</time>
      </trkpt>
      <trkpt lat="47.06926" lon="5.46728">
        <ele>197.5</ele>
        <time>2020-05-27T10:40:00Z</time>
      </trkpt>
      <trkpt lat="47.06921" lon="5.46725">
        <ele>197.5</ele>
        <time>2020-05-27T10:40:01Z</time>
      </trkpt>
      <trkpt lat="47.06917" lon="5.46721">
        <ele>197.6</ele>
        <time>2020-05-27T10:40:02Z</time>
      </trkpt>
      <trkpt lat="47.06912" lon="5.46718">
        <ele>197.6</ele>
        <time>2020-05-27T10:40:03Z</time>
      </trkpt>
      <trkpt lat="47.06908" lon="5.46714">
        <ele>197.6</ele>
        <time>2020-05-27T10:40:04Z</time>
      </trkpt>
      <trkpt lat="47.06903" lon="5.4671">
        <ele>197.6</ele>
        <time>2020-05-27T10:40:05Z</time>
      </trkpt>
      <trkpt lat="47.06899" lon="5.46707">
        <ele>197.6</ele>
        <time>2020-05-27T10:40:06Z</time>
      </trkpt>
      <trkpt lat="47.06894" lon="5.46704">
        <ele>197.7</ele>
        <time>2020-05-27T10:40:07Z</time>
      </trkpt>
      <trkpt lat="47.0689" lon="5.46701">
        <ele>197.7</ele>
        <time>2020-05-27T10:40:08Z</time>
      </trkpt>
      <trkpt lat="47.06885" lon="5.46698">
        <ele>197.7</ele>
        <time>2020-05-27T10:40:09Z</time>
      </trkpt>
      <trkpt lat="47.06881" lon="5.46694">
        <ele>197.7</ele>
        <time>2020-05-27T10:40:10Z</time>
      </trkpt>
      <trkpt lat="47.06876" lon="5.4669">
        <ele>197.7</ele>
        <time>2020-05-27T10:40:11Z</time>
      </trkpt>
      <trkpt lat="47.06872" lon="5.46686">
        <ele>197.7</ele>
        <time>2020-05-27T10:40:12Z</time>
      </trkpt>
      <trkpt lat="47.06867" lon="5.46683">
        <ele>197.7</ele>
        <time>2020-05-27T10:40:13Z</time>
      </trkpt>
      <trkpt lat="47.06862" lon="5.46679">
        <ele>197.7</ele>
        <time>2020-05-27T10:40:14Z</time>
      </trkpt>
      <trkpt lat="47.06858" lon="5.46676">
        <ele>197.7</ele>
        <time>2020-05-27T10:40:15Z</time>
      </trkpt>
      <trkpt lat="47.06853" lon="5.46672">
        <ele>197.7</ele>
        <time>2020-05-27T10:40:16Z</time>
      </trkpt>
      <trkpt lat="47.06848" lon="5.46669">
        <ele>197.7</ele>
        <time>2020-05-27T10:40:17Z</time>
      </trkpt>
      <trkpt lat="47.06844" lon="5.46665">
        <ele>197.7</ele>
        <time>2020-05-27T10:40:18Z</time>
      </trkpt>
      <trkpt lat="47.06839" lon="5.46661">
        <ele>197.7</ele>
        <time>2020-05-27T10:40:19Z</time>
      </trkpt>
      <trkpt lat="47.06835" lon="5.46657">
        <ele>197.6</ele>
        <time>2020-05-27T10:40:20Z</time>
      </trkpt>
      <trkpt lat="47.06831" lon="5.46654">
        <ele>197.6</ele>
        <time>2020-05-27T10:40:21Z</time>
      </trkpt>
      <trkpt lat="47.06827" lon="5.46651">
        <ele>197.7</ele>
        <time>2020-05-27T10:40:22Z</time>
      </trkpt>
      <trkpt lat="47.06822" lon="5.46648">
        <ele>197.7</ele>
        <time>2020-05-27T10:40:23Z</time>
      </trkpt>
      <trkpt lat="47.06818" lon="5.46645">
        <ele>197.7</ele>
        <time>2020-05-27T10:40:24Z</time>
      </trkpt>
      <trkpt lat="47.06814" lon="5.46642">
        <ele>197.7</ele>
        <time>2020-05-27T10:40:25Z</time>
      </trkpt>
      <trkpt lat="47.0681" lon="5.46639">
        <ele>197.6</ele>
        <time>2020-05-27T10:40:26Z</time>
      </trkpt>
      <trkpt lat="47.06805" lon="5.46637">
        <ele>197.6</ele>
        <time>2020-05-27T10:40:27Z</time>
      </trkpt>
      <trkpt lat="47.06801" lon="5.46634">
        <ele>197.5</ele>
        <time>2020-05-27T10:40:28Z</time>
      </trkpt>
      <trkpt lat="47.06796" lon="5.46632">
        <ele>197.5</ele>
        <time>2020-05-27T10:40:29Z</time>
      </trkpt>
      <trkpt lat="47.06792" lon="5.46629">
        <ele>197.4</ele>
        <time>2020-05-27T10:40:30Z</time>
      </trkpt>
      <trkpt lat="47.06787" lon="5.46626">
        <ele>197.3</ele>
        <time>2020-05-27T10:40:31Z</time>
      </trkpt>
      <trkpt lat="47.06783" lon="5.46623">
        <ele>197.2</ele>
        <time>2020-05-27T10:40:32Z</time>
      </trkpt>
      <trkpt lat="47.06778" lon="5.46621">
        <ele>197.1</ele>
        <time>2020-05-27T10:40:33Z</time>
      </trkpt>
      <trkpt lat="47.06773" lon="5.46618">
        <ele>197</ele>
        <time>2020-05-27T10:40:34Z</time>
      </trkpt>
      <trkpt lat="47.06769" lon="5.46615">
        <ele>197</ele>
        <time>2020-05-27T10:40:35Z</time>
      </trkpt>
      <trkpt lat="47.06764" lon="5.46612">
        <ele>197.9</ele>
        <time>2020-05-27T10:40:36Z</time>
      </trkpt>
      <trkpt lat="47.0676" lon="5.46608">
        <ele>197.9</ele>
        <time>2020-05-27T10:40:37Z</time>
      </trkpt>
      <trkpt lat="47.06756" lon="5.46605">
        <ele>197.9</ele>
        <time>2020-05-27T10:40:38Z</time>
      </trkpt>
      <trkpt lat="47.06752" lon="5.46602">
        <ele>197.8</ele>
        <time>2020-05-27T10:40:39Z</time>
      </trkpt>
      <trkpt lat="47.06748" lon="5.46599">
        <ele>197.8</ele>
        <time>2020-05-27T10:40:40Z</time>
      </trkpt>
      <trkpt lat="47.06744" lon="5.46596">
        <ele>197.8</ele>
        <time>2020-05-27T10:40:41Z</time>
      </trkpt>
      <trkpt lat="47.0674" lon="5.46593">
        <ele>197.8</ele>
        <time>2020-05-27T10:40:42Z</time>
      </trkpt>
      <trkpt lat="47.06736" lon="5.4659">
        <ele>197.8</ele>
        <time>2020-05-27T10:40:43Z</time>
      </trkpt>
      <trkpt lat="47.06732" lon="5.46587">
        <ele>197.8</ele>
        <time>2020-05-27T10:40:44Z</time>
      </trkpt>
      <trkpt lat="47.06728" lon="5.46584">
        <ele>197.8</ele>
        <time>2020-05-27T10:40:45Z</time>
      </trkpt>
      <trkpt lat="47.06723" lon="5.46581">
        <ele>197.8</ele>
        <time>2020-05-27T10:40:46Z</time>
      </trkpt>
      <trkpt lat="47.06719" lon="5.46577">
        <ele>197.8</ele>
        <time>2020-05-27T10:40:47Z</time>
      </trkpt>
      <trkpt lat="47.06715" lon="5.46574">
        <ele>197.8</ele>
        <time>2020-05-27T10:40:48Z</time>
      </trkpt>
      <trkpt lat="47.0671" lon="5.46571">
        <ele>197.8</ele>
        <time>2020-05-27T10:40:49Z</time>
      </trkpt>
      <trkpt lat="47.06706" lon="5.46568">
        <ele>197.8</ele>
        <time>2020-05-27T10:40:50Z</time>
      </trkpt>
      <trkpt lat="47.06701" lon="5.46565">
        <ele>197.7</ele>
        <time>2020-05-27T10:40:51Z</time>
      </trkpt>
      <trkpt lat="47.06697" lon="5.46561">
        <ele>197.7</ele>
        <time>2020-05-27T10:40:52Z</time>
      </trkpt>
      <trkpt lat="47.06693" lon="5.46558">
        <ele>197.7</ele>
        <time>2020-05-27T10:40:53Z</time>
      </trkpt>
      <trkpt lat="47.06689" lon="5.46555">
        <ele>197.7</ele>
        <time>2020-05-27T10:40:54Z</time>
      </trkpt>
      <trkpt lat="47.06684" lon="5.46552">
        <ele>197.7</ele>
        <time>2020-05-27T10:40:55Z</time>
      </trkpt>
      <trkpt lat="47.0668" lon="5.46548">
        <ele>197.7</ele>
        <time>2020-05-27T10:40:56Z</time>
      </trkpt>
      <trkpt lat="47.06676" lon="5.46545">
        <ele>197.7</ele>
        <time>2020-05-27T10:40:57Z</time>
      </trkpt>
      <trkpt lat="47.06672" lon="5.46542">
        <ele>197.7</ele>
        <time>2020-05-27T10:40:58Z</time>
      </trkpt>
      <trkpt lat="47.06667" lon="5.46539">
        <ele>197.7</ele>
        <time>2020-05-27T10:40:59Z</time>
      </trkpt>
      <trkpt lat="47.06663" lon="5.46536">
        <ele>197.7</ele>
        <time>2020-05-27T10:41:00Z</time>
      </trkpt>
      <trkpt lat="47.06659" lon="5.46532">
        <ele>197.7</ele>
        <time>2020-05-27T10:41:01Z</time>
      </trkpt>
      <trkpt lat="47.06655" lon="5.46529">
        <ele>197.7</ele>
        <time>2020-05-27T10:41:02Z</time>
      </trkpt>
      <trkpt lat="47.0665" lon="5.46526">
        <ele>197.7</ele>
        <time>2020-05-27T10:41:03Z</time>
      </trkpt>
      <trkpt lat="47.06646" lon="5.46523">
        <ele>197.7</ele>
        <time>2020-05-27T10:41:04Z</time>
      </trkpt>
      <trkpt lat="47.06642" lon="5.4652">
        <ele>197.7</ele>
        <time>2020-05-27T10:41:05Z</time>
      </trkpt>
      <trkpt lat="47.06638" lon="5.46517">
        <ele>197.7</ele>
        <time>2020-05-27T10:41:06Z</time>
      </trkpt>
      <trkpt lat="47.06634" lon="5.46514">
        <ele>197.7</ele>
        <time>2020-05-27T10:41:07Z</time>
      </trkpt>
      <trkpt lat="47.0663" lon="5.46511">
        <ele>197.7</ele>
        <time>2020-05-27T10:41:08Z</time>
      </trkpt>
      <trkpt lat="47.06626" lon="5.46508">
        <ele>197.7</ele>
        <time>2020-05-27T10:41:09Z</time>
      </trkpt>
      <trkpt lat="47.06622" lon="5.46505">
        <ele>197.7</ele>
        <time>2020-05-27T10:41:10Z</time>
      </trkpt>
      <trkpt lat="47.06618" lon="5.46502">
        <ele>197.7</ele>
        <time>2020-05-27T10:41:11Z</time>
      </trkpt>
      <trkpt lat="47.06614" lon="5.46498">
        <ele>197.7</ele>
        <time>2020-05-27T10:41:12Z</time>
      </trkpt>
      <trkpt lat="47.0661" lon="5.46495">
        <ele>197.7</ele>
        <time>2020-05-27T10:41:13Z</time>
      </trkpt>
      <trkpt lat="47.06606" lon="5.46492">
        <ele>197.7</ele>
        <time>2020-05-27T10:41:14Z</time>
      </trkpt>
      <trkpt lat="47.06601" lon="5.46489">
        <ele>197.7</ele>
        <time>2020-05-27T10:41:15Z</time>
      </trkpt>
      <trkpt lat="47.06597" lon="5.46485">
        <ele>197.7</ele>
        <time>2020-05-27T10:41:16Z</time>
      </trkpt>
      <trkpt lat="47.06593" lon="5.46482">
        <ele>197.7</ele>
        <time>2020-05-27T10:41:17Z</time>
      </trkpt>
      <trkpt lat="47.06589" lon="5.46478">
        <ele>197.7</ele>
        <time>2020-05-27T10:41:18Z</time>
      </trkpt>
      <trkpt lat="47.06585" lon="5.46475">
        <ele>197.7</ele>
        <time>2020-05-27T10:41:19Z</time>
      </trkpt>
      <trkpt lat="47.06581" lon="5.46472">
        <ele>197.7</ele>
        <time>2020-05-27T10:41:20Z</time>
      </trkpt>
      <trkpt lat="47.06577" lon="5.46469">
        <ele>197.7</ele>
        <time>2020-05-27T10:41:21Z</time>
      </trkpt>
      <trkpt lat="47.06573" lon="5.46466">
        <ele>197.7</ele>
        <time>2020-05-27T10:41:22Z</time>
      </trkpt>
      <trkpt lat="47.06569" lon="5.46462">
        <ele>197.7</ele>
        <time>2020-05-27T10:41:23Z</time>
      </trkpt>
      <trkpt lat="47.06565" lon="5.46459">
        <ele>197.7</ele>
        <time>2020-05-27T10:41:24Z</time>
      </trkpt>
      <trkpt lat="47.06561" lon="5.46456">
        <ele>197.8</ele>
        <time>2020-05-27T10:41:25Z</time>
      </trkpt>
      <trkpt lat="47.06557" lon="5.46453">
        <ele>197.8</ele>
        <time>2020-05-27T10:41:26Z</time>
      </trkpt>
      <trkpt lat="47.06553" lon="5.46449">
        <ele>197.8</ele>
        <time>2020-05-27T10:41:27Z</time>
      </trkpt>
      <trkpt lat="47.06549" lon="5.46445">
        <ele>197.8</ele>
        <time>2020-05-27T10:41:28Z</time>
      </trkpt>
      <trkpt lat="47.06545" lon="5.46442">
        <ele>197.8</ele>
        <time>2020-05-27T10:41:29Z</time>
      </trkpt>
      <trkpt lat="47.06541" lon="5.46438">
        <ele>197.8</ele>
        <time>2020-05-27T10:41:30Z</time>
      </trkpt>
      <trkpt lat="47.06537" lon="5.46435">
        <ele>197.8</ele>
        <time>2020-05-27T10:41:31Z</time>
      </trkpt>
      <trkpt lat="47.06532" lon="5.46432">
        <ele>197.7</ele>
        <time>2020-05-27T10:41:32Z</time>
      </trkpt>
      <trkpt lat="47.06528" lon="5.46429">
        <ele>197.7</ele>
        <time>2020-05-27T10:41:33Z</time>
      </trkpt>
      <trkpt lat="47.06524" lon="5.46426">
        <ele>197.7</ele>
        <time>2020-05-27T10:41:34Z</time>
      </trkpt>
      <trkpt lat="47.06519" lon="5.46423">
        <ele>197.7</ele>
        <time>2020-05-27T10:41:35Z</time>
      </trkpt>
      <trkpt lat="47.06515" lon="5.46419">
        <ele>197.6</ele>
        <time>2020-05-27T10:41:36Z</time>
      </trkpt>
      <trkpt lat="47.06511" lon="5.46416">
        <ele>197.6</ele>
        <time>2020-05-27T10:41:37Z</time>
      </trkpt>
      <trkpt lat="47.06507" lon="5.46412">
        <ele>197.6</ele>
        <time>2020-05-27T10:41:38Z</time>
      </trkpt>
      <trkpt lat="47.06503" lon="5.46409">
        <ele>197.6</ele>
        <time>2020-05-27T10:41:39Z</time>
      </trkpt>
      <trkpt lat="47.06499" lon="5.46405">
        <ele>197.6</ele>
        <time>2020-05-27T10:41:40Z</time>
      </trkpt>
      <trkpt lat="47.06495" lon="5.46402">
        <ele>197.6</ele>
        <time>2020-05-27T10:41:41Z</time>
      </trkpt>
      <trkpt lat="47.06491" lon="5.46399">
        <ele>197.5</ele>
        <time>2020-05-27T10:41:42Z</time>
      </trkpt>
      <trkpt lat="47.06487" lon="5.46395">
        <ele>197.5</ele>
        <time>2020-05-27T10:41:43Z</time>
      </trkpt>
      <trkpt lat="47.06483" lon="5.46392">
        <ele>197.5</ele>
        <time>2020-05-27T10:41:44Z</time>
      </trkpt>
      <trkpt lat="47.06479" lon="5.46389">
        <ele>197.5</ele>
        <time>2020-05-27T10:41:45Z</time>
      </trkpt>
      <trkpt lat="47.06475" lon="5.46385">
        <ele>197.5</ele>
        <time>2020-05-27T10:41:46Z</time>
      </trkpt>
      <trkpt lat="47.06471" lon="5.46382">
        <ele>197.5</ele>
        <time>2020-05-27T10:41:47Z</time>
      </trkpt>
      <trkpt lat="47.06467" lon="5.46379">
        <ele>197.5</ele>
        <time>2020-05-27T10:41:48Z</time>
      </trkpt>
      <trkpt lat="47.06463" lon="5.46376">
        <ele>197.5</ele>
        <time>2020-05-27T10:41:49Z</time>
      </trkpt>
      <trkpt lat="47.06459" lon="5.46373">
        <ele>197.6</ele>
        <time>2020-05-27T10:41:50Z</time>
      </trkpt>
      <trkpt lat="47.06455" lon="5.4637">
        <ele>197.6</ele>
        <time>2020-05-27T10:41:51Z</time>
      </trkpt>
      <trkpt lat="47.06451" lon="5.46367">
        <ele>197.6</ele>
        <time>2020-05-27T10:41:52Z</time>
      </trkpt>
      <trkpt lat="47.06446" lon="5.46364">
        <ele>197.6</ele>
        <time>2020-05-27T10:41:53Z</time>
      </trkpt>
      <trkpt lat="47.06442" lon="5.4636">
        <ele>197.7</ele>
        <time>2020-05-27T10:41:54Z</time>
      </trkpt>
      <trkpt lat="47.06438" lon="5.46357">
        <ele>197.7</ele>
        <time>2020-05-27T10:41:55Z</time>
      </trkpt>
      <trkpt lat="47.06434" lon="5.46354">
        <ele>197.7</ele>
        <time>2020-05-27T10:41:56Z</time>
      </trkpt>
      <trkpt lat="47.0643" lon="5.46351">
        <ele>197.7</ele>
        <time>2020-05-27T10:41:57Z</time>
      </trkpt>
      <trkpt lat="47.06426" lon="5.46349">
        <ele>197.7</ele>
        <time>2020-05-27T10:41:58Z</time>
      </trkpt>
      <trkpt lat="47.06422" lon="5.46346">
        <ele>197.7</ele>
        <time>2020-05-27T10:41:59Z</time>
      </trkpt>
      <trkpt lat="47.06418" lon="5.46343">
        <ele>197.7</ele>
        <time>2020-05-27T10:42:00Z</time>
      </trkpt>
      <trkpt lat="47.06414" lon="5.4634">
        <ele>197.7</ele>
        <time>2020-05-27T10:42:01Z</time>
      </trkpt>
      <trkpt lat="47.0641" lon="5.46337">
        <ele>197.7</ele>
        <time>2020-05-27T10:42:02Z</time>
      </trkpt>
      <trkpt lat="47.06406" lon="5.46334">
        <ele>197.8</ele>
        <time>2020-05-27T10:42:03Z</time>
      </trkpt>
      <trkpt lat="47.06402" lon="5.46331">
        <ele>197.8</ele>
        <time>2020-05-27T10:42:04Z</time>
      </trkpt>
      <trkpt lat="47.06398" lon="5.46328">
        <ele>197.8</ele>
        <time>2020-05-27T10:42:05Z</time>
      </trkpt>
      <trkpt lat="47.06394" lon="5.46325">
        <ele>197.8</ele>
        <time>2020-05-27T10:42:06Z</time>
      </trkpt>
      <trkpt lat="47.0639" lon="5.46322">
        <ele>197.8</ele>
        <time>2020-05-27T10:42:07Z</time>
      </trkpt>
      <trkpt lat="47.06386" lon="5.46319">
        <ele>197.7</ele>
        <time>2020-05-27T10:42:08Z</time>
      </trkpt>
      <trkpt lat="47.06382" lon="5.46315">
        <ele>197.7</ele>
        <time>2020-05-27T10:42:09Z</time>
      </trkpt>
      <trkpt lat="47.06378" lon="5.46311">
        <ele>197.7</ele>
        <time>2020-05-27T10:42:10Z</time>
      </trkpt>
      <trkpt lat="47.06374" lon="5.46308">
        <ele>197.7</ele>
        <time>2020-05-27T10:42:11Z</time>
      </trkpt>
      <trkpt lat="47.0637" lon="5.46304">
        <ele>197.7</ele>
        <time>2020-05-27T10:42:12Z</time>
      </trkpt>
      <trkpt lat="47.06366" lon="5.46301">
        <ele>197.7</ele>
        <time>2020-05-27T10:42:13Z</time>
      </trkpt>
      <trkpt lat="47.06362" lon="5.46297">
        <ele>197.7</ele>
        <time>2020-05-27T10:42:14Z</time>
      </trkpt>
      <trkpt lat="47.06358" lon="5.46294">
        <ele>197.7</ele>
        <time>2020-05-27T10:42:15Z</time>
      </trkpt>
      <trkpt lat="47.06354" lon="5.4629">
        <ele>197.6</ele>
        <time>2020-05-27T10:42:16Z</time>
      </trkpt>
      <trkpt lat="47.06351" lon="5.46286">
        <ele>197.6</ele>
        <time>2020-05-27T10:42:17Z</time>
      </trkpt>
      <trkpt lat="47.06347" lon="5.46282">
        <ele>197.6</ele>
        <time>2020-05-27T10:42:18Z</time>
      </trkpt>
      <trkpt lat="47.06343" lon="5.46278">
        <ele>197.6</ele>
        <time>2020-05-27T10:42:19Z</time>
      </trkpt>
      <trkpt lat="47.06339" lon="5.46274">
        <ele>197.5</ele>
        <time>2020-05-27T10:42:20Z</time>
      </trkpt>
      <trkpt lat="47.06335" lon="5.4627">
        <ele>197.5</ele>
        <time>2020-05-27T10:42:21Z</time>
      </trkpt>
      <trkpt lat="47.06331" lon="5.46267">
        <ele>197.5</ele>
        <time>2020-05-27T10:42:22Z</time>
      </trkpt>
      <trkpt lat="47.06327" lon="5.46264">
        <ele>197.5</ele>
        <time>2020-05-27T10:42:23Z</time>
      </trkpt>
      <trkpt lat="47.06323" lon="5.4626">
        <ele>197.5</ele>
        <time>2020-05-27T10:42:24Z</time>
      </trkpt>
      <trkpt lat="47.06319" lon="5.46257">
        <ele>197.5</ele>
        <time>2020-05-27T10:42:25Z</time>
      </trkpt>
      <trkpt lat="47.06315" lon="5.46254">
        <ele>197.5</ele>
        <time>2020-05-27T10:42:26Z</time>
      </trkpt>
      <trkpt lat="47.06311" lon="5.4625">
        <ele>197.5</ele>
        <time>2020-05-27T10:42:27Z</time>
      </trkpt>
      <trkpt lat="47.06307" lon="5.46247">
        <ele>197.5</ele>
        <time>2020-05-27T10:42:28Z</time>
      </trkpt>
      <trkpt lat="47.06303" lon="5.46244">
        <ele>197.5</ele>
        <time>2020-05-27T10:42:29Z</time>
      </trkpt>
      <trkpt lat="47.06299" lon="5.46241">
        <ele>197.5</ele>
        <time>2020-05-27T10:42:30Z</time>
      </trkpt>
      <trkpt lat="47.06295" lon="5.46238">
        <ele>197.5</ele>
        <time>2020-05-27T10:42:31Z</time>
      </trkpt>
      <trkpt lat="47.06291" lon="5.46234">
        <ele>197.5</ele>
        <time>2020-05-27T10:42:32Z</time>
      </trkpt>
      <trkpt lat="47.06287" lon="5.46231">
        <ele>197.5</ele>
        <time>2020-05-27T10:42:33Z</time>
      </trkpt>
      <trkpt lat="47.06283" lon="5.46228">
        <ele>197.5</ele>
        <time>2020-05-27T10:42:34Z</time>
      </trkpt>
      <trkpt lat="47.06279" lon="5.46224">
        <ele>197.5</ele>
        <time>2020-05-27T10:42:35Z</time>
      </trkpt>
      <trkpt lat="47.06275" lon="5.4622">
        <ele>197.5</ele>
        <time>2020-05-27T10:42:36Z</time>
      </trkpt>
      <trkpt lat="47.06272" lon="5.46217">
        <ele>197.5</ele>
        <time>2020-05-27T10:42:37Z</time>
      </trkpt>
      <trkpt lat="47.06268" lon="5.46214">
        <ele>197.5</ele>
        <time>2020-05-27T10:42:38Z</time>
      </trkpt>
      <trkpt lat="47.06264" lon="5.46211">
        <ele>197.5</ele>
        <time>2020-05-27T10:42:39Z</time>
      </trkpt>
      <trkpt lat="47.06259" lon="5.46208">
        <ele>197.5</ele>
        <time>2020-05-27T10:42:40Z</time>
      </trkpt>
      <trkpt lat="47.06255" lon="5.46205">
        <ele>197.5</ele>
        <time>2020-05-27T10:42:41Z</time>
      </trkpt>
      <trkpt lat="47.06251" lon="5.46202">
        <ele>197.5</ele>
        <time>2020-05-27T10:42:42Z</time>
      </trkpt>
      <trkpt lat="47.06247" lon="5.46199">
        <ele>197.5</ele>
        <time>2020-05-27T10:42:43Z</time>
      </trkpt>
      <trkpt lat="47.06243" lon="5.46195">
        <ele>197.6</ele>
        <time>2020-05-27T10:42:44Z</time>
      </trkpt>
      <trkpt lat="47.06239" lon="5.46192">
        <ele>197.6</ele>
        <time>2020-05-27T10:42:45Z</time>
      </trkpt>
      <trkpt lat="47.06235" lon="5.46189">
        <ele>197.6</ele>
        <time>2020-05-27T10:42:46Z</time>
      </trkpt>
      <trkpt lat="47.0623" lon="5.46187">
        <ele>197.5</ele>
        <time>2020-05-27T10:42:47Z</time>
      </trkpt>
      <trkpt lat="47.06226" lon="5.46185">
        <ele>197.5</ele>
        <time>2020-05-27T10:42:48Z</time>
      </trkpt>
      <trkpt lat="47.06221" lon="5.46183">
        <ele>197.5</ele>
        <time>2020-05-27T10:42:49Z</time>
      </trkpt>
      <trkpt lat="47.06217" lon="5.46181">
        <ele>197.5</ele>
        <time>2020-05-27T10:42:50Z</time>
      </trkpt>
      <trkpt lat="47.06212" lon="5.46179">
        <ele>197.5</ele>
        <time>2020-05-27T10:42:51Z</time>
      </trkpt>
      <trkpt lat="47.06208" lon="5.46176">
        <ele>197.5</ele>
        <time>2020-05-27T10:42:52Z</time>
      </trkpt>
      <trkpt lat="47.06204" lon="5.46174">
        <ele>197.5</ele>
        <time>2020-05-27T10:42:53Z</time>
      </trkpt>
      <trkpt lat="47.062" lon="5.46172">
        <ele>197.5</ele>
        <time>2020-05-27T10:42:54Z</time>
      </trkpt>
      <trkpt lat="47.06196" lon="5.46169">
        <ele>197.5</ele>
        <time>2020-05-27T10:42:55Z</time>
      </trkpt>
      <trkpt lat="47.06192" lon="5.46166">
        <ele>197.5</ele>
        <time>2020-05-27T10:42:56Z</time>
      </trkpt>
      <trkpt lat="47.06188" lon="5.46163">
        <ele>197.5</ele>
        <time>2020-05-27T10:42:57Z</time>
      </trkpt>
      <trkpt lat="47.06184" lon="5.46161">
        <ele>197.5</ele>
        <time>2020-05-27T10:42:58Z</time>
      </trkpt>
      <trkpt lat="47.0618" lon="5.46158">
        <ele>197.5</ele>
        <time>2020-05-27T10:42:59Z</time>
      </trkpt>
      <trkpt lat="47.06176" lon="5.46155">
        <ele>197.5</ele>
        <time>2020-05-27T10:43:00Z</time>
      </trkpt>
      <trkpt lat="47.06172" lon="5.46152">
        <ele>197.5</ele>
        <time>2020-05-27T10:43:01Z</time>
      </trkpt>
      <trkpt lat="47.06169" lon="5.4615">
        <ele>197.5</ele>
        <time>2020-05-27T10:43:02Z</time>
      </trkpt>
      <trkpt lat="47.06165" lon="5.46147">
        <ele>197.5</ele>
        <time>2020-05-27T10:43:03Z</time>
      </trkpt>
      <trkpt lat="47.06161" lon="5.46144">
        <ele>197.5</ele>
        <time>2020-05-27T10:43:04Z</time>
      </trkpt>
      <trkpt lat="47.06157" lon="5.46141">
        <ele>197.5</ele>
        <time>2020-05-27T10:43:05Z</time>
      </trkpt>
      <trkpt lat="47.06153" lon="5.46138">
        <ele>197.5</ele>
        <time>2020-05-27T10:43:06Z</time>
      </trkpt>
      <trkpt lat="47.0615" lon="5.46135">
        <ele>197.5</ele>
        <time>2020-05-27T10:43:07Z</time>
      </trkpt>
      <trkpt lat="47.06146" lon="5.46132">
        <ele>197.6</ele>
        <time>2020-05-27T10:43:08Z</time>
      </trkpt>
      <trkpt lat="47.06142" lon="5.4613">
        <ele>197.6</ele>
        <time>2020-05-27T10:43:09Z</time>
      </trkpt>
      <trkpt lat="47.06138" lon="5.46127">
        <ele>197.6</ele>
        <time>2020-05-27T10:43:10Z</time>
      </trkpt>
      <trkpt lat="47.06134" lon="5.46124">
        <ele>197.7</ele>
        <time>2020-05-27T10:43:11Z</time>
      </trkpt>
      <trkpt lat="47.06131" lon="5.46121">
        <ele>197.8</ele>
        <time>2020-05-27T10:43:12Z</time>
      </trkpt>
      <trkpt lat="47.06127" lon="5.46118">
        <ele>197.8</ele>
        <time>2020-05-27T10:43:13Z</time>
      </trkpt>
      <trkpt lat="47.06123" lon="5.46115">
        <ele>197.9</ele>
        <time>2020-05-27T10:43:14Z</time>
      </trkpt>
      <trkpt lat="47.06119" lon="5.46113">
        <ele>197</ele>
        <time>2020-05-27T10:43:15Z</time>
      </trkpt>
      <trkpt lat="47.06115" lon="5.46111">
        <ele>197</ele>
        <time>2020-05-27T10:43:16Z</time>
      </trkpt>
      <trkpt lat="47.06111" lon="5.4611">
        <ele>197</ele>
        <time>2020-05-27T10:43:17Z</time>
      </trkpt>
      <trkpt lat="47.06107" lon="5.46108">
        <ele>197</ele>
        <time>2020-05-27T10:43:18Z</time>
      </trkpt>
      <trkpt lat="47.06102" lon="5.46106">
        <ele>197</ele>
        <time>2020-05-27T10:43:19Z</time>
      </trkpt>
      <trkpt lat="47.06098" lon="5.46104">
        <ele>197</ele>
        <time>2020-05-27T10:43:20Z</time>
      </trkpt>
      <trkpt lat="47.06095" lon="5.46101">
        <ele>197</ele>
        <time>2020-05-27T10:43:21Z</time>
      </trkpt>
      <trkpt lat="47.06091" lon="5.46097">
        <ele>197</ele>
        <time>2020-05-27T10:43:22Z</time>
      </trkpt>
      <trkpt lat="47.06088" lon="5.46093">
        <ele>197</ele>
        <time>2020-05-27T10:43:23Z</time>
      </trkpt>
      <trkpt lat="47.06085" lon="5.46089">
        <ele>197</ele>
        <time>2020-05-27T10:43:24Z</time>
      </trkpt>
      <trkpt lat="47.06082" lon="5.46085">
        <ele>197.9</ele>
        <time>2020-05-27T10:43:25Z</time>
      </trkpt>
      <trkpt lat="47.06079" lon="5.46081">
        <ele>197.9</ele>
        <time>2020-05-27T10:43:26Z</time>
      </trkpt>
      <trkpt lat="47.06076" lon="5.46077">
        <ele>197.9</ele>
        <time>2020-05-27T10:43:27Z</time>
      </trkpt>
      <trkpt lat="47.06072" lon="5.46072">
        <ele>197.9</ele>
        <time>2020-05-27T10:43:28Z</time>
      </trkpt>
      <trkpt lat="47.06069" lon="5.46067">
        <ele>197.8</ele>
        <time>2020-05-27T10:43:29Z</time>
      </trkpt>
      <trkpt lat="47.06066" lon="5.46061">
        <ele>197.8</ele>
        <time>2020-05-27T10:43:30Z</time>
      </trkpt>
      <trkpt lat="47.06063" lon="5.46055">
        <ele>197.8</ele>
        <time>2020-05-27T10:43:31Z</time>
      </trkpt>
      <trkpt lat="47.0606" lon="5.46049">
        <ele>197.7</ele>
        <time>2020-05-27T10:43:32Z</time>
      </trkpt>
      <trkpt lat="47.06058" lon="5.46043">
        <ele>197.7</ele>
        <time>2020-05-27T10:43:33Z</time>
      </trkpt>
      <trkpt lat="47.06055" lon="5.46036">
        <ele>197.7</ele>
        <time>2020-05-27T10:43:34Z</time>
      </trkpt>
      <trkpt lat="47.06053" lon="5.4603">
        <ele>197.7</ele>
        <time>2020-05-27T10:43:35Z</time>
      </trkpt>
      <trkpt lat="47.06051" lon="5.46025">
        <ele>197.7</ele>
        <time>2020-05-27T10:43:36Z</time>
      </trkpt>
      <trkpt lat="47.06048" lon="5.46019">
        <ele>197.7</ele>
        <time>2020-05-27T10:43:37Z</time>
      </trkpt>
      <trkpt lat="47.06046" lon="5.46013">
        <ele>197.7</ele>
        <time>2020-05-27T10:43:38Z</time>
      </trkpt>
      <trkpt lat="47.06044" lon="5.46007">
        <ele>197.7</ele>
        <time>2020-05-27T10:43:39Z</time>
      </trkpt>
      <trkpt lat="47.06043" lon="5.46">
        <ele>197.7</ele>
        <time>2020-05-27T10:43:40Z</time>
      </trkpt>
      <trkpt lat="47.06041" lon="5.45994">
        <ele>197.7</ele>
        <time>2020-05-27T10:43:41Z</time>
      </trkpt>
      <trkpt lat="47.06039" lon="5.45988">
        <ele>197.7</ele>
        <time>2020-05-27T10:43:42Z</time>
      </trkpt>
      <trkpt lat="47.06037" lon="5.45982">
        <ele>197.7</ele>
        <time>2020-05-27T10:43:43Z</time>
      </trkpt>
      <trkpt lat="47.06035" lon="5.45975">
        <ele>197.8</ele>
        <time>2020-05-27T10:43:44Z</time>
      </trkpt>
      <trkpt lat="47.06033" lon="5.45968">
        <ele>197.8</ele>
        <time>2020-05-27T10:43:45Z</time>
      </trkpt>
      <trkpt lat="47.06031" lon="5.45962">
        <ele>197.8</ele>
        <time>2020-05-27T10:43:46Z</time>
      </trkpt>
      <trkpt lat="47.0603" lon="5.45956">
        <ele>197.7</ele>
        <time>2020-05-27T10:43:47Z</time>
      </trkpt>
      <trkpt lat="47.06028" lon="5.4595">
        <ele>197.7</ele>
        <time>2020-05-27T10:43:48Z</time>
      </trkpt>
      <trkpt lat="47.06026" lon="5.45943">
        <ele>197.7</ele>
        <time>2020-05-27T10:43:49Z</time>
      </trkpt>
      <trkpt lat="47.06024" lon="5.45938">
        <ele>197.7</ele>
        <time>2020-05-27T10:43:50Z</time>
      </trkpt>
      <trkpt lat="47.06023" lon="5.45932">
        <ele>197.7</ele>
        <time>2020-05-27T10:43:51Z</time>
      </trkpt>
      <trkpt lat="47.06021" lon="5.45926">
        <ele>197.7</ele>
        <time>2020-05-27T10:43:52Z</time>
      </trkpt>
      <trkpt lat="47.06019" lon="5.45919">
        <ele>197.7</ele>
        <time>2020-05-27T10:43:53Z</time>
      </trkpt>
      <trkpt lat="47.06017" lon="5.45913">
        <ele>197.7</ele>
        <time>2020-05-27T10:43:54Z</time>
      </trkpt>
      <trkpt lat="47.06015" lon="5.45906">
        <ele>197.7</ele>
        <time>2020-05-27T10:43:55Z</time>
      </trkpt>
      <trkpt lat="47.06013" lon="5.459">
        <ele>197.7</ele>
        <time>2020-05-27T10:43:56Z</time>
      </trkpt>
      <trkpt lat="47.06011" lon="5.45893">
        <ele>197.7</ele>
        <time>2020-05-27T10:43:57Z</time>
      </trkpt>
      <trkpt lat="47.06009" lon="5.45887">
        <ele>197.7</ele>
        <time>2020-05-27T10:43:58Z</time>
      </trkpt>
      <trkpt lat="47.06007" lon="5.4588">
        <ele>197.7</ele>
        <time>2020-05-27T10:43:59Z</time>
      </trkpt>
      <trkpt lat="47.06005" lon="5.45874">
        <ele>197.7</ele>
        <time>2020-05-27T10:44:00Z</time>
      </trkpt>
      <trkpt lat="47.06003" lon="5.45868">
        <ele>197.7</ele>
        <time>2020-05-27T10:44:01Z</time>
      </trkpt>
      <trkpt lat="47.06001" lon="5.45862">
        <ele>197.7</ele>
        <time>2020-05-27T10:44:02Z</time>
      </trkpt>
      <trkpt lat="47.05999" lon="5.45855">
        <ele>197.7</ele>
        <time>2020-05-27T10:44:03Z</time>
      </trkpt>
      <trkpt lat="47.05997" lon="5.45849">
        <ele>197.7</ele>
        <time>2020-05-27T10:44:04Z</time>
      </trkpt>
      <trkpt lat="47.05995" lon="5.45843">
        <ele>197.7</ele>
        <time>2020-05-27T10:44:05Z</time>
      </trkpt>
      <trkpt lat="47.05993" lon="5.45837">
        <ele>197.7</ele>
        <time>2020-05-27T10:44:06Z</time>
      </trkpt>
      <trkpt lat="47.05992" lon="5.45831">
        <ele>197.7</ele>
        <time>2020-05-27T10:44:07Z</time>
      </trkpt>
      <trkpt lat="47.0599" lon="5.45824">
        <ele>197.7</ele>
        <time>2020-05-27T10:44:08Z</time>
      </trkpt>
      <trkpt lat="47.05988" lon="5.45818">
        <ele>197.7</ele>
        <time>2020-05-27T10:44:09Z</time>
      </trkpt>
      <trkpt lat="47.05986" lon="5.45812">
        <ele>197.7</ele>
        <time>2020-05-27T10:44:10Z</time>
      </trkpt>
      <trkpt lat="47.05984" lon="5.45806">
        <ele>197.7</ele>
        <time>2020-05-27T10:44:11Z</time>
      </trkpt>
      <trkpt lat="47.05983" lon="5.458">
        <ele>197.7</ele>
        <time>2020-05-27T10:44:12Z</time>
      </trkpt>
      <trkpt lat="47.05981" lon="5.45794">
        <ele>197.8</ele>
        <time>2020-05-27T10:44:13Z</time>
      </trkpt>
      <trkpt lat="47.05979" lon="5.45788">
        <ele>197.8</ele>
        <time>2020-05-27T10:44:14Z</time>
      </trkpt>
      <trkpt lat="47.05977" lon="5.45782">
        <ele>197.8</ele>
        <time>2020-05-27T10:44:15Z</time>
      </trkpt>
      <trkpt lat="47.05975" lon="5.45776">
        <ele>197.8</ele>
        <time>2020-05-27T10:44:16Z</time>
      </trkpt>
      <trkpt lat="47.05973" lon="5.4577">
        <ele>197.9</ele>
        <time>2020-05-27T10:44:17Z</time>
      </trkpt>
      <trkpt lat="47.05971" lon="5.45764">
        <ele>197.9</ele>
        <time>2020-05-27T10:44:18Z</time>
      </trkpt>
      <trkpt lat="47.0597" lon="5.45757">
        <ele>197.9</ele>
        <time>2020-05-27T10:44:19Z</time>
      </trkpt>
      <trkpt lat="47.05968" lon="5.45751">
        <ele>197</ele>
        <time>2020-05-27T10:44:20Z</time>
      </trkpt>
      <trkpt lat="47.05966" lon="5.45745">
        <ele>197</ele>
        <time>2020-05-27T10:44:21Z</time>
      </trkpt>
      <trkpt lat="47.05964" lon="5.45739">
        <ele>197</ele>
        <time>2020-05-27T10:44:22Z</time>
      </trkpt>
      <trkpt lat="47.05963" lon="5.45733">
        <ele>197</ele>
        <time>2020-05-27T10:44:23Z</time>
      </trkpt>
      <trkpt lat="47.05961" lon="5.45727">
        <ele>197</ele>
        <time>2020-05-27T10:44:24Z</time>
      </trkpt>
      <trkpt lat="47.05959" lon="5.45721">
        <ele>197.1</ele>
        <time>2020-05-27T10:44:25Z</time>
      </trkpt>
      <trkpt lat="47.05957" lon="5.45715">
        <ele>197.1</ele>
        <time>2020-05-27T10:44:26Z</time>
      </trkpt>
      <trkpt lat="47.05955" lon="5.45709">
        <ele>197.1</ele>
        <time>2020-05-27T10:44:27Z</time>
      </trkpt>
      <trkpt lat="47.05953" lon="5.45703">
        <ele>197.1</ele>
        <time>2020-05-27T10:44:28Z</time>
      </trkpt>
      <trkpt lat="47.05951" lon="5.45696">
        <ele>197.1</ele>
        <time>2020-05-27T10:44:29Z</time>
      </trkpt>
      <trkpt lat="47.05949" lon="5.4569">
        <ele>197.1</ele>
        <time>2020-05-27T10:44:30Z</time>
      </trkpt>
      <trkpt lat="47.05947" lon="5.45683">
        <ele>197.1</ele>
        <time>2020-05-27T10:44:31Z</time>
      </trkpt>
      <trkpt lat="47.05945" lon="5.45677">
        <ele>197.1</ele>
        <time>2020-05-27T10:44:32Z</time>
      </trkpt>
      <trkpt lat="47.05943" lon="5.45671">
        <ele>197.2</ele>
        <time>2020-05-27T10:44:33Z</time>
      </trkpt>
      <trkpt lat="47.0594" lon="5.45665">
        <ele>197.2</ele>
        <time>2020-05-27T10:44:34Z</time>
      </trkpt>
      <trkpt lat="47.05938" lon="5.45658">
        <ele>197.2</ele>
        <time>2020-05-27T10:44:35Z</time>
      </trkpt>
      <trkpt lat="47.05936" lon="5.45652">
        <ele>197.2</ele>
        <time>2020-05-27T10:44:36Z</time>
      </trkpt>
      <trkpt lat="47.05935" lon="5.45645">
        <ele>197.2</ele>
        <time>2020-05-27T10:44:37Z</time>
      </trkpt>
      <trkpt lat="47.05933" lon="5.45639">
        <ele>197.2</ele>
        <time>2020-05-27T10:44:38Z</time>
      </trkpt>
      <trkpt lat="47.05931" lon="5.45632">
        <ele>197.2</ele>
        <time>2020-05-27T10:44:39Z</time>
      </trkpt>
      <trkpt lat="47.05929" lon="5.45626">
        <ele>197.2</ele>
        <time>2020-05-27T10:44:40Z</time>
      </trkpt>
      <trkpt lat="47.05927" lon="5.4562">
        <ele>197.2</ele>
        <time>2020-05-27T10:44:41Z</time>
      </trkpt>
      <trkpt lat="47.05924" lon="5.45614">
        <ele>197.2</ele>
        <time>2020-05-27T10:44:42Z</time>
      </trkpt>
      <trkpt lat="47.05922" lon="5.45608">
        <ele>197.2</ele>
        <time>2020-05-27T10:44:43Z</time>
      </trkpt>
      <trkpt lat="47.05921" lon="5.45602">
        <ele>197.2</ele>
        <time>2020-05-27T10:44:44Z</time>
      </trkpt>
      <trkpt lat="47.05919" lon="5.45596">
        <ele>197.3</ele>
        <time>2020-05-27T10:44:45Z</time>
      </trkpt>
      <trkpt lat="47.05917" lon="5.45589">
        <ele>197.3</ele>
        <time>2020-05-27T10:44:46Z</time>
      </trkpt>
      <trkpt lat="47.05915" lon="5.45583">
        <ele>197.3</ele>
        <time>2020-05-27T10:44:47Z</time>
      </trkpt>
      <trkpt lat="47.05913" lon="5.45577">
        <ele>197.3</ele>
        <time>2020-05-27T10:44:48Z</time>
      </trkpt>
      <trkpt lat="47.05912" lon="5.45571">
        <ele>197.3</ele>
        <time>2020-05-27T10:44:49Z</time>
      </trkpt>
      <trkpt lat="47.0591" lon="5.45565">
        <ele>197.3</ele>
        <time>2020-05-27T10:44:50Z</time>
      </trkpt>
      <trkpt lat="47.05908" lon="5.45559">
        <ele>197.3</ele>
        <time>2020-05-27T10:44:51Z</time>
      </trkpt>
      <trkpt lat="47.05906" lon="5.45553">
        <ele>197.3</ele>
        <time>2020-05-27T10:44:52Z</time>
      </trkpt>
      <trkpt lat="47.05904" lon="5.45547">
        <ele>197.3</ele>
        <time>2020-05-27T10:44:53Z</time>
      </trkpt>
      <trkpt lat="47.05902" lon="5.45541">
        <ele>197.3</ele>
        <time>2020-05-27T10:44:54Z</time>
      </trkpt>
      <trkpt lat="47.05901" lon="5.45535">
        <ele>197.3</ele>
        <time>2020-05-27T10:44:55Z</time>
      </trkpt>
      <trkpt lat="47.05899" lon="5.4553">
        <ele>197.3</ele>
        <time>2020-05-27T10:44:56Z</time>
      </trkpt>
      <trkpt lat="47.05897" lon="5.45523">
        <ele>197.3</ele>
        <time>2020-05-27T10:44:57Z</time>
      </trkpt>
      <trkpt lat="47.05896" lon="5.45517">
        <ele>197.3</ele>
        <time>2020-05-27T10:44:58Z</time>
      </trkpt>
      <trkpt lat="47.05894" lon="5.45511">
        <ele>197.3</ele>
        <time>2020-05-27T10:44:59Z</time>
      </trkpt>
      <trkpt lat="47.05892" lon="5.45505">
        <ele>197.3</ele>
        <time>2020-05-27T10:45:00Z</time>
      </trkpt>
      <trkpt lat="47.05891" lon="5.45499">
        <ele>197.3</ele>
        <time>2020-05-27T10:45:01Z</time>
      </trkpt>
      <trkpt lat="47.05889" lon="5.45493">
        <ele>197.3</ele>
        <time>2020-05-27T10:45:02Z</time>
      </trkpt>
      <trkpt lat="47.05887" lon="5.45487">
        <ele>197.3</ele>
        <time>2020-05-27T10:45:03Z</time>
      </trkpt>
      <trkpt lat="47.05885" lon="5.45481">
        <ele>197.3</ele>
        <time>2020-05-27T10:45:04Z</time>
      </trkpt>
      <trkpt lat="47.05883" lon="5.45475">
        <ele>197.3</ele>
        <time>2020-05-27T10:45:05Z</time>
      </trkpt>
      <trkpt lat="47.05881" lon="5.45469">
        <ele>197.3</ele>
        <time>2020-05-27T10:45:06Z</time>
      </trkpt>
      <trkpt lat="47.05879" lon="5.45463">
        <ele>197.3</ele>
        <time>2020-05-27T10:45:07Z</time>
      </trkpt>
      <trkpt lat="47.05877" lon="5.45457">
        <ele>197.3</ele>
        <time>2020-05-27T10:45:08Z</time>
      </trkpt>
      <trkpt lat="47.05875" lon="5.45451">
        <ele>197.3</ele>
        <time>2020-05-27T10:45:09Z</time>
      </trkpt>
      <trkpt lat="47.05873" lon="5.45446">
        <ele>197.3</ele>
        <time>2020-05-27T10:45:10Z</time>
      </trkpt>
      <trkpt lat="47.05871" lon="5.4544">
        <ele>197.3</ele>
        <time>2020-05-27T10:45:11Z</time>
      </trkpt>
      <trkpt lat="47.05869" lon="5.45434">
        <ele>197.3</ele>
        <time>2020-05-27T10:45:12Z</time>
      </trkpt>
      <trkpt lat="47.05867" lon="5.45428">
        <ele>197.3</ele>
        <time>2020-05-27T10:45:13Z</time>
      </trkpt>
      <trkpt lat="47.05866" lon="5.45421">
        <ele>197.3</ele>
        <time>2020-05-27T10:45:14Z</time>
      </trkpt>
      <trkpt lat="47.05864" lon="5.45415">
        <ele>197.3</ele>
        <time>2020-05-27T10:45:15Z</time>
      </trkpt>
      <trkpt lat="47.05862" lon="5.45409">
        <ele>197.3</ele>
        <time>2020-05-27T10:45:16Z</time>
      </trkpt>
      <trkpt lat="47.0586" lon="5.45403">
        <ele>197.3</ele>
        <time>2020-05-27T10:45:17Z</time>
      </trkpt>
      <trkpt lat="47.05858" lon="5.45397">
        <ele>197.3</ele>
        <time>2020-05-27T10:45:18Z</time>
      </trkpt>
      <trkpt lat="47.05856" lon="5.45391">
        <ele>197.3</ele>
        <time>2020-05-27T10:45:19Z</time>
      </trkpt>
      <trkpt lat="47.05855" lon="5.45385">
        <ele>197.2</ele>
        <time>2020-05-27T10:45:20Z</time>
      </trkpt>
      <trkpt lat="47.05853" lon="5.45379">
        <ele>197.2</ele>
        <time>2020-05-27T10:45:21Z</time>
      </trkpt>
      <trkpt lat="47.05851" lon="5.45373">
        <ele>197.2</ele>
        <time>2020-05-27T10:45:22Z</time>
      </trkpt>
      <trkpt lat="47.05849" lon="5.45367">
        <ele>197.2</ele>
        <time>2020-05-27T10:45:23Z</time>
      </trkpt>
      <trkpt lat="47.05848" lon="5.45361">
        <ele>197.2</ele>
        <time>2020-05-27T10:45:24Z</time>
      </trkpt>
      <trkpt lat="47.05846" lon="5.45355">
        <ele>197.2</ele>
        <time>2020-05-27T10:45:25Z</time>
      </trkpt>
      <trkpt lat="47.05845" lon="5.45349">
        <ele>197.2</ele>
        <time>2020-05-27T10:45:26Z</time>
      </trkpt>
      <trkpt lat="47.05843" lon="5.45343">
        <ele>197.2</ele>
        <time>2020-05-27T10:45:27Z</time>
      </trkpt>
      <trkpt lat="47.05841" lon="5.45337">
        <ele>197.1</ele>
        <time>2020-05-27T10:45:28Z</time>
      </trkpt>
      <trkpt lat="47.05839" lon="5.4533">
        <ele>197.1</ele>
        <time>2020-05-27T10:45:29Z</time>
      </trkpt>
      <trkpt lat="47.05837" lon="5.45324">
        <ele>197.1</ele>
        <time>2020-05-27T10:45:30Z</time>
      </trkpt>
      <trkpt lat="47.05835" lon="5.45318">
        <ele>197.1</ele>
        <time>2020-05-27T10:45:31Z</time>
      </trkpt>
      <trkpt lat="47.05833" lon="5.45312">
        <ele>197.1</ele>
        <time>2020-05-27T10:45:32Z</time>
      </trkpt>
      <trkpt lat="47.05831" lon="5.45306">
        <ele>197.1</ele>
        <time>2020-05-27T10:45:33Z</time>
      </trkpt>
      <trkpt lat="47.0583" lon="5.45299">
        <ele>197.1</ele>
        <time>2020-05-27T10:45:34Z</time>
      </trkpt>
      <trkpt lat="47.05828" lon="5.45293">
        <ele>197.1</ele>
        <time>2020-05-27T10:45:35Z</time>
      </trkpt>
      <trkpt lat="47.05826" lon="5.45287">
        <ele>197</ele>
        <time>2020-05-27T10:45:36Z</time>
      </trkpt>
      <trkpt lat="47.05824" lon="5.45281">
        <ele>197</ele>
        <time>2020-05-27T10:45:37Z</time>
      </trkpt>
      <trkpt lat="47.05822" lon="5.45275">
        <ele>197</ele>
        <time>2020-05-27T10:45:38Z</time>
      </trkpt>
      <trkpt lat="47.0582" lon="5.45269">
        <ele>197</ele>
        <time>2020-05-27T10:45:39Z</time>
      </trkpt>
      <trkpt lat="47.05818" lon="5.45263">
        <ele>197</ele>
        <time>2020-05-27T10:45:40Z</time>
      </trkpt>
      <trkpt lat="47.05816" lon="5.45257">
        <ele>197</ele>
        <time>2020-05-27T10:45:41Z</time>
      </trkpt>
      <trkpt lat="47.05814" lon="5.45251">
        <ele>197</ele>
        <time>2020-05-27T10:45:42Z</time>
      </trkpt>
      <trkpt lat="47.05812" lon="5.45245">
        <ele>197</ele>
        <time>2020-05-27T10:45:43Z</time>
      </trkpt>
      <trkpt lat="47.0581" lon="5.45238">
        <ele>197</ele>
        <time>2020-05-27T10:45:44Z</time>
      </trkpt>
      <trkpt lat="47.05808" lon="5.45233">
        <ele>197</ele>
        <time>2020-05-27T10:45:45Z</time>
      </trkpt>
      <trkpt lat="47.05806" lon="5.45227">
        <ele>197</ele>
        <time>2020-05-27T10:45:46Z</time>
      </trkpt>
      <trkpt lat="47.05805" lon="5.45221">
        <ele>197</ele>
        <time>2020-05-27T10:45:47Z</time>
      </trkpt>
      <trkpt lat="47.05803" lon="5.45215">
        <ele>197.1</ele>
        <time>2020-05-27T10:45:48Z</time>
      </trkpt>
      <trkpt lat="47.05801" lon="5.45209">
        <ele>197.1</ele>
        <time>2020-05-27T10:45:49Z</time>
      </trkpt>
      <trkpt lat="47.05799" lon="5.45204">
        <ele>197.1</ele>
        <time>2020-05-27T10:45:50Z</time>
      </trkpt>
      <trkpt lat="47.05797" lon="5.45198">
        <ele>197</ele>
        <time>2020-05-27T10:45:51Z</time>
      </trkpt>
      <trkpt lat="47.05795" lon="5.45192">
        <ele>197</ele>
        <time>2020-05-27T10:45:52Z</time>
      </trkpt>
      <trkpt lat="47.05793" lon="5.45187">
        <ele>197</ele>
        <time>2020-05-27T10:45:53Z</time>
      </trkpt>
      <trkpt lat="47.05792" lon="5.45181">
        <ele>197</ele>
        <time>2020-05-27T10:45:54Z</time>
      </trkpt>
      <trkpt lat="47.0579" lon="5.45175">
        <ele>197</ele>
        <time>2020-05-27T10:45:55Z</time>
      </trkpt>
      <trkpt lat="47.05788" lon="5.4517">
        <ele>197</ele>
        <time>2020-05-27T10:45:56Z</time>
      </trkpt>
      <trkpt lat="47.05786" lon="5.45164">
        <ele>197</ele>
        <time>2020-05-27T10:45:57Z</time>
      </trkpt>
      <trkpt lat="47.05784" lon="5.45158">
        <ele>197</ele>
        <time>2020-05-27T10:45:58Z</time>
      </trkpt>
      <trkpt lat="47.05782" lon="5.45152">
        <ele>197</ele>
        <time>2020-05-27T10:45:59Z</time>
      </trkpt>
      <trkpt lat="47.0578" lon="5.45146">
        <ele>197</ele>
        <time>2020-05-27T10:46:00Z</time>
      </trkpt>
      <trkpt lat="47.05779" lon="5.4514">
        <ele>197</ele>
        <time>2020-05-27T10:46:01Z</time>
      </trkpt>
      <trkpt lat="47.05777" lon="5.45134">
        <ele>197</ele>
        <time>2020-05-27T10:46:02Z</time>
      </trkpt>
      <trkpt lat="47.05775" lon="5.45128">
        <ele>197</ele>
        <time>2020-05-27T10:46:03Z</time>
      </trkpt>
      <trkpt lat="47.05773" lon="5.45122">
        <ele>197</ele>
        <time>2020-05-27T10:46:04Z</time>
      </trkpt>
      <trkpt lat="47.05771" lon="5.45115">
        <ele>197</ele>
        <time>2020-05-27T10:46:05Z</time>
      </trkpt>
      <trkpt lat="47.05769" lon="5.45109">
        <ele>197</ele>
        <time>2020-05-27T10:46:06Z</time>
      </trkpt>
      <trkpt lat="47.05767" lon="5.45103">
        <ele>197</ele>
        <time>2020-05-27T10:46:07Z</time>
      </trkpt>
      <trkpt lat="47.05765" lon="5.45097">
        <ele>197</ele>
        <time>2020-05-27T10:46:08Z</time>
      </trkpt>
      <trkpt lat="47.05763" lon="5.4509">
        <ele>197.9</ele>
        <time>2020-05-27T10:46:09Z</time>
      </trkpt>
      <trkpt lat="47.05761" lon="5.45084">
        <ele>197.9</ele>
        <time>2020-05-27T10:46:10Z</time>
      </trkpt>
      <trkpt lat="47.0576" lon="5.45077">
        <ele>197.9</ele>
        <time>2020-05-27T10:46:11Z</time>
      </trkpt>
      <trkpt lat="47.05758" lon="5.45071">
        <ele>197.9</ele>
        <time>2020-05-27T10:46:12Z</time>
      </trkpt>
      <trkpt lat="47.05756" lon="5.45065">
        <ele>197.9</ele>
        <time>2020-05-27T10:46:13Z</time>
      </trkpt>
      <trkpt lat="47.05754" lon="5.45059">
        <ele>197.9</ele>
        <time>2020-05-27T10:46:14Z</time>
      </trkpt>
      <trkpt lat="47.05752" lon="5.45053">
        <ele>197.9</ele>
        <time>2020-05-27T10:46:15Z</time>
      </trkpt>
      <trkpt lat="47.0575" lon="5.45046">
        <ele>197.9</ele>
        <time>2020-05-27T10:46:16Z</time>
      </trkpt>
      <trkpt lat="47.05748" lon="5.4504">
        <ele>197.9</ele>
        <time>2020-05-27T10:46:17Z</time>
      </trkpt>
      <trkpt lat="47.05747" lon="5.45034">
        <ele>197.9</ele>
        <time>2020-05-27T10:46:18Z</time>
      </trkpt>
      <trkpt lat="47.05745" lon="5.45028">
        <ele>197.9</ele>
        <time>2020-05-27T10:46:19Z</time>
      </trkpt>
      <trkpt lat="47.05743" lon="5.45022">
        <ele>197.9</ele>
        <time>2020-05-27T10:46:20Z</time>
      </trkpt>
      <trkpt lat="47.05741" lon="5.45016">
        <ele>197.9</ele>
        <time>2020-05-27T10:46:21Z</time>
      </trkpt>
      <trkpt lat="47.05739" lon="5.4501">
        <ele>197.9</ele>
        <time>2020-05-27T10:46:22Z</time>
      </trkpt>
      <trkpt lat="47.05737" lon="5.45004">
        <ele>197.9</ele>
        <time>2020-05-27T10:46:23Z</time>
      </trkpt>
      <trkpt lat="47.05736" lon="5.44998">
        <ele>197.9</ele>
        <time>2020-05-27T10:46:24Z</time>
      </trkpt>
      <trkpt lat="47.05734" lon="5.44992">
        <ele>197.9</ele>
        <time>2020-05-27T10:46:25Z</time>
      </trkpt>
      <trkpt lat="47.05732" lon="5.44986">
        <ele>197.9</ele>
        <time>2020-05-27T10:46:26Z</time>
      </trkpt>
      <trkpt lat="47.0573" lon="5.4498">
        <ele>197.9</ele>
        <time>2020-05-27T10:46:27Z</time>
      </trkpt>
      <trkpt lat="47.05728" lon="5.44974">
        <ele>197.9</ele>
        <time>2020-05-27T10:46:28Z</time>
      </trkpt>
      <trkpt lat="47.05726" lon="5.44968">
        <ele>197.8</ele>
        <time>2020-05-27T10:46:29Z</time>
      </trkpt>
      <trkpt lat="47.05724" lon="5.44962">
        <ele>197.8</ele>
        <time>2020-05-27T10:46:30Z</time>
      </trkpt>
      <trkpt lat="47.05723" lon="5.44956">
        <ele>197.8</ele>
        <time>2020-05-27T10:46:31Z</time>
      </trkpt>
      <trkpt lat="47.05721" lon="5.4495">
        <ele>197.8</ele>
        <time>2020-05-27T10:46:32Z</time>
      </trkpt>
      <trkpt lat="47.05719" lon="5.44944">
        <ele>197.8</ele>
        <time>2020-05-27T10:46:33Z</time>
      </trkpt>
      <trkpt lat="47.05717" lon="5.44938">
        <ele>197.8</ele>
        <time>2020-05-27T10:46:34Z</time>
      </trkpt>
      <trkpt lat="47.05715" lon="5.44932">
        <ele>197.8</ele>
        <time>2020-05-27T10:46:35Z</time>
      </trkpt>
      <trkpt lat="47.05713" lon="5.44926">
        <ele>197.8</ele>
        <time>2020-05-27T10:46:36Z</time>
      </trkpt>
      <trkpt lat="47.05711" lon="5.4492">
        <ele>197.8</ele>
        <time>2020-05-27T10:46:37Z</time>
      </trkpt>
      <trkpt lat="47.05709" lon="5.44914">
        <ele>197.8</ele>
        <time>2020-05-27T10:46:38Z</time>
      </trkpt>
      <trkpt lat="47.05707" lon="5.44908">
        <ele>197.8</ele>
        <time>2020-05-27T10:46:39Z</time>
      </trkpt>
      <trkpt lat="47.05705" lon="5.44902">
        <ele>197.8</ele>
        <time>2020-05-27T10:46:40Z</time>
      </trkpt>
      <trkpt lat="47.05703" lon="5.44896">
        <ele>197.8</ele>
        <time>2020-05-27T10:46:41Z</time>
      </trkpt>
      <trkpt lat="47.05701" lon="5.4489">
        <ele>197.8</ele>
        <time>2020-05-27T10:46:42Z</time>
      </trkpt>
      <trkpt lat="47.05699" lon="5.44884">
        <ele>197.8</ele>
        <time>2020-05-27T10:46:43Z</time>
      </trkpt>
      <trkpt lat="47.05697" lon="5.44878">
        <ele>197.8</ele>
        <time>2020-05-27T10:46:44Z</time>
      </trkpt>
      <trkpt lat="47.05695" lon="5.44872">
        <ele>197.8</ele>
        <time>2020-05-27T10:46:45Z</time>
      </trkpt>
      <trkpt lat="47.05693" lon="5.44866">
        <ele>197.8</ele>
        <time>2020-05-27T10:46:46Z</time>
      </trkpt>
      <trkpt lat="47.05692" lon="5.4486">
        <ele>197.8</ele>
        <time>2020-05-27T10:46:47Z</time>
      </trkpt>
      <trkpt lat="47.0569" lon="5.44854">
        <ele>197.8</ele>
        <time>2020-05-27T10:46:48Z</time>
      </trkpt>
      <trkpt lat="47.05687" lon="5.44848">
        <ele>197.8</ele>
        <time>2020-05-27T10:46:49Z</time>
      </trkpt>
      <trkpt lat="47.05685" lon="5.44842">
        <ele>197.8</ele>
        <time>2020-05-27T10:46:50Z</time>
      </trkpt>
      <trkpt lat="47.05683" lon="5.44835">
        <ele>197.8</ele>
        <time>2020-05-27T10:46:51Z</time>
      </trkpt>
      <trkpt lat="47.05682" lon="5.44829">
        <ele>197.8</ele>
        <time>2020-05-27T10:46:52Z</time>
      </trkpt>
      <trkpt lat="47.0568" lon="5.44823">
        <ele>197.8</ele>
        <time>2020-05-27T10:46:53Z</time>
      </trkpt>
      <trkpt lat="47.05678" lon="5.44817">
        <ele>197.8</ele>
        <time>2020-05-27T10:46:54Z</time>
      </trkpt>
      <trkpt lat="47.05676" lon="5.44811">
        <ele>197.8</ele>
        <time>2020-05-27T10:46:55Z</time>
      </trkpt>
      <trkpt lat="47.05674" lon="5.44805">
        <ele>197.8</ele>
        <time>2020-05-27T10:46:56Z</time>
      </trkpt>
      <trkpt lat="47.05672" lon="5.44799">
        <ele>197.8</ele>
        <time>2020-05-27T10:46:57Z</time>
      </trkpt>
      <trkpt lat="47.0567" lon="5.44793">
        <ele>197.8</ele>
        <time>2020-05-27T10:46:58Z</time>
      </trkpt>
      <trkpt lat="47.05668" lon="5.44787">
        <ele>197.8</ele>
        <time>2020-05-27T10:46:59Z</time>
      </trkpt>
      <trkpt lat="47.05666" lon="5.44781">
        <ele>197.8</ele>
        <time>2020-05-27T10:47:00Z</time>
      </trkpt>
      <trkpt lat="47.05664" lon="5.44775">
        <ele>197.8</ele>
        <time>2020-05-27T10:47:01Z</time>
      </trkpt>
      <trkpt lat="47.05663" lon="5.44769">
        <ele>197.8</ele>
        <time>2020-05-27T10:47:02Z</time>
      </trkpt>
      <trkpt lat="47.05661" lon="5.44762">
        <ele>197.8</ele>
        <time>2020-05-27T10:47:03Z</time>
      </trkpt>
      <trkpt lat="47.05659" lon="5.44756">
        <ele>197.8</ele>
        <time>2020-05-27T10:47:04Z</time>
      </trkpt>
      <trkpt lat="47.05657" lon="5.44749">
        <ele>197.8</ele>
        <time>2020-05-27T10:47:05Z</time>
      </trkpt>
      <trkpt lat="47.05655" lon="5.44743">
        <ele>197.8</ele>
        <time>2020-05-27T10:47:06Z</time>
      </trkpt>
      <trkpt lat="47.05653" lon="5.44737">
        <ele>197.8</ele>
        <time>2020-05-27T10:47:07Z</time>
      </trkpt>
      <trkpt lat="47.05651" lon="5.4473">
        <ele>197.8</ele>
        <time>2020-05-27T10:47:08Z</time>
      </trkpt>
      <trkpt lat="47.05649" lon="5.44724">
        <ele>197.8</ele>
        <time>2020-05-27T10:47:09Z</time>
      </trkpt>
      <trkpt lat="47.05647" lon="5.44717">
        <ele>197.7</ele>
        <time>2020-05-27T10:47:10Z</time>
      </trkpt>
      <trkpt lat="47.05645" lon="5.44711">
        <ele>197.7</ele>
        <time>2020-05-27T10:47:11Z</time>
      </trkpt>
      <trkpt lat="47.05643" lon="5.44705">
        <ele>197.7</ele>
        <time>2020-05-27T10:47:12Z</time>
      </trkpt>
      <trkpt lat="47.05641" lon="5.44698">
        <ele>197.7</ele>
        <time>2020-05-27T10:47:13Z</time>
      </trkpt>
      <trkpt lat="47.05639" lon="5.44692">
        <ele>197.6</ele>
        <time>2020-05-27T10:47:14Z</time>
      </trkpt>
      <trkpt lat="47.05637" lon="5.44685">
        <ele>197.6</ele>
        <time>2020-05-27T10:47:15Z</time>
      </trkpt>
      <trkpt lat="47.05634" lon="5.44678">
        <ele>197.6</ele>
        <time>2020-05-27T10:47:16Z</time>
      </trkpt>
      <trkpt lat="47.05632" lon="5.44672">
        <ele>197.5</ele>
        <time>2020-05-27T10:47:17Z</time>
      </trkpt>
      <trkpt lat="47.0563" lon="5.44665">
        <ele>197.5</ele>
        <time>2020-05-27T10:47:18Z</time>
      </trkpt>
      <trkpt lat="47.05628" lon="5.44659">
        <ele>197.5</ele>
        <time>2020-05-27T10:47:19Z</time>
      </trkpt>
      <trkpt lat="47.05626" lon="5.44653">
        <ele>197.5</ele>
        <time>2020-05-27T10:47:20Z</time>
      </trkpt>
      <trkpt lat="47.05624" lon="5.44646">
        <ele>197.4</ele>
        <time>2020-05-27T10:47:21Z</time>
      </trkpt>
      <trkpt lat="47.05622" lon="5.4464">
        <ele>197.4</ele>
        <time>2020-05-27T10:47:22Z</time>
      </trkpt>
      <trkpt lat="47.05621" lon="5.44634">
        <ele>197.4</ele>
        <time>2020-05-27T10:47:23Z</time>
      </trkpt>
      <trkpt lat="47.05619" lon="5.44627">
        <ele>197.4</ele>
        <time>2020-05-27T10:47:24Z</time>
      </trkpt>
      <trkpt lat="47.05618" lon="5.44621">
        <ele>197.4</ele>
        <time>2020-05-27T10:47:25Z</time>
      </trkpt>
      <trkpt lat="47.05616" lon="5.44615">
        <ele>197.4</ele>
        <time>2020-05-27T10:47:26Z</time>
      </trkpt>
      <trkpt lat="47.05615" lon="5.44608">
        <ele>197.4</ele>
        <time>2020-05-27T10:47:27Z</time>
      </trkpt>
      <trkpt lat="47.05613" lon="5.44601">
        <ele>197.4</ele>
        <time>2020-05-27T10:47:28Z</time>
      </trkpt>
      <trkpt lat="47.05611" lon="5.44595">
        <ele>197.4</ele>
        <time>2020-05-27T10:47:29Z</time>
      </trkpt>
      <trkpt lat="47.05609" lon="5.44589">
        <ele>197.4</ele>
        <time>2020-05-27T10:47:30Z</time>
      </trkpt>
      <trkpt lat="47.05607" lon="5.44582">
        <ele>197.4</ele>
        <time>2020-05-27T10:47:31Z</time>
      </trkpt>
      <trkpt lat="47.05605" lon="5.44576">
        <ele>197.4</ele>
        <time>2020-05-27T10:47:32Z</time>
      </trkpt>
      <trkpt lat="47.05603" lon="5.44569">
        <ele>197.4</ele>
        <time>2020-05-27T10:47:33Z</time>
      </trkpt>
      <trkpt lat="47.05601" lon="5.44563">
        <ele>197.4</ele>
        <time>2020-05-27T10:47:34Z</time>
      </trkpt>
      <trkpt lat="47.05599" lon="5.44557">
        <ele>197.3</ele>
        <time>2020-05-27T10:47:35Z</time>
      </trkpt>
      <trkpt lat="47.05596" lon="5.44551">
        <ele>197.3</ele>
        <time>2020-05-27T10:47:36Z</time>
      </trkpt>
      <trkpt lat="47.05594" lon="5.44544">
        <ele>197.3</ele>
        <time>2020-05-27T10:47:37Z</time>
      </trkpt>
      <trkpt lat="47.05593" lon="5.44538">
        <ele>197.3</ele>
        <time>2020-05-27T10:47:38Z</time>
      </trkpt>
      <trkpt lat="47.05591" lon="5.44532">
        <ele>197.2</ele>
        <time>2020-05-27T10:47:39Z</time>
      </trkpt>
      <trkpt lat="47.05588" lon="5.44526">
        <ele>197.2</ele>
        <time>2020-05-27T10:47:40Z</time>
      </trkpt>
      <trkpt lat="47.05586" lon="5.44519">
        <ele>197.2</ele>
        <time>2020-05-27T10:47:41Z</time>
      </trkpt>
      <trkpt lat="47.05584" lon="5.44513">
        <ele>197.2</ele>
        <time>2020-05-27T10:47:42Z</time>
      </trkpt>
      <trkpt lat="47.05582" lon="5.44507">
        <ele>197.2</ele>
        <time>2020-05-27T10:47:43Z</time>
      </trkpt>
      <trkpt lat="47.05579" lon="5.445">
        <ele>197.2</ele>
        <time>2020-05-27T10:47:44Z</time>
      </trkpt>
      <trkpt lat="47.05577" lon="5.44494">
        <ele>197.2</ele>
        <time>2020-05-27T10:47:45Z</time>
      </trkpt>
      <trkpt lat="47.05575" lon="5.44488">
        <ele>197.2</ele>
        <time>2020-05-27T10:47:46Z</time>
      </trkpt>
      <trkpt lat="47.05573" lon="5.44481">
        <ele>197.2</ele>
        <time>2020-05-27T10:47:47Z</time>
      </trkpt>
      <trkpt lat="47.0557" lon="5.44475">
        <ele>197.2</ele>
        <time>2020-05-27T10:47:48Z</time>
      </trkpt>
      <trkpt lat="47.05568" lon="5.44469">
        <ele>197.2</ele>
        <time>2020-05-27T10:47:49Z</time>
      </trkpt>
      <trkpt lat="47.05566" lon="5.44462">
        <ele>197.2</ele>
        <time>2020-05-27T10:47:50Z</time>
      </trkpt>
      <trkpt lat="47.05564" lon="5.44456">
        <ele>197.2</ele>
        <time>2020-05-27T10:47:51Z</time>
      </trkpt>
      <trkpt lat="47.05562" lon="5.4445">
        <ele>197.2</ele>
        <time>2020-05-27T10:47:52Z</time>
      </trkpt>
      <trkpt lat="47.0556" lon="5.44443">
        <ele>197.2</ele>
        <time>2020-05-27T10:47:53Z</time>
      </trkpt>
      <trkpt lat="47.05559" lon="5.44437">
        <ele>197.2</ele>
        <time>2020-05-27T10:47:54Z</time>
      </trkpt>
      <trkpt lat="47.05557" lon="5.4443">
        <ele>197.2</ele>
        <time>2020-05-27T10:47:55Z</time>
      </trkpt>
      <trkpt lat="47.05555" lon="5.44423">
        <ele>197.2</ele>
        <time>2020-05-27T10:47:56Z</time>
      </trkpt>
      <trkpt lat="47.05554" lon="5.44416">
        <ele>197.2</ele>
        <time>2020-05-27T10:47:57Z</time>
      </trkpt>
      <trkpt lat="47.05553" lon="5.4441">
        <ele>197.2</ele>
        <time>2020-05-27T10:47:58Z</time>
      </trkpt>
      <trkpt lat="47.05552" lon="5.44403">
        <ele>197.2</ele>
        <time>2020-05-27T10:47:59Z</time>
      </trkpt>
      <trkpt lat="47.05551" lon="5.44396">
        <ele>197.2</ele>
        <time>2020-05-27T10:48:00Z</time>
      </trkpt>
      <trkpt lat="47.05551" lon="5.44389">
        <ele>197.2</ele>
        <time>2020-05-27T10:48:01Z</time>
      </trkpt>
      <trkpt lat="47.05551" lon="5.44381">
        <ele>197.2</ele>
        <time>2020-05-27T10:48:02Z</time>
      </trkpt>
      <trkpt lat="47.05552" lon="5.44374">
        <ele>197.2</ele>
        <time>2020-05-27T10:48:03Z</time>
      </trkpt>
      <trkpt lat="47.05553" lon="5.44367">
        <ele>197.2</ele>
        <time>2020-05-27T10:48:04Z</time>
      </trkpt>
      <trkpt lat="47.05554" lon="5.44359">
        <ele>197.2</ele>
        <time>2020-05-27T10:48:05Z</time>
      </trkpt>
      <trkpt lat="47.05556" lon="5.44352">
        <ele>197.2</ele>
        <time>2020-05-27T10:48:06Z</time>
      </trkpt>
      <trkpt lat="47.05559" lon="5.44345">
        <ele>197.2</ele>
        <time>2020-05-27T10:48:07Z</time>
      </trkpt>
      <trkpt lat="47.05562" lon="5.44338">
        <ele>197.2</ele>
        <time>2020-05-27T10:48:08Z</time>
      </trkpt>
      <trkpt lat="47.05564" lon="5.44332">
        <ele>197.1</ele>
        <time>2020-05-27T10:48:09Z</time>
      </trkpt>
      <trkpt lat="47.05567" lon="5.44326">
        <ele>197.1</ele>
        <time>2020-05-27T10:48:10Z</time>
      </trkpt>
      <trkpt lat="47.0557" lon="5.4432">
        <ele>197.1</ele>
        <time>2020-05-27T10:48:11Z</time>
      </trkpt>
      <trkpt lat="47.05574" lon="5.44315">
        <ele>197.1</ele>
        <time>2020-05-27T10:48:12Z</time>
      </trkpt>
      <trkpt lat="47.05577" lon="5.44309">
        <ele>197.1</ele>
        <time>2020-05-27T10:48:13Z</time>
      </trkpt>
      <trkpt lat="47.05581" lon="5.44304">
        <ele>197.1</ele>
        <time>2020-05-27T10:48:14Z</time>
      </trkpt>
      <trkpt lat="47.05584" lon="5.44299">
        <ele>197.1</ele>
        <time>2020-05-27T10:48:15Z</time>
      </trkpt>
      <trkpt lat="47.05588" lon="5.44294">
        <ele>197.1</ele>
        <time>2020-05-27T10:48:16Z</time>
      </trkpt>
      <trkpt lat="47.05592" lon="5.44289">
        <ele>197.1</ele>
        <time>2020-05-27T10:48:17Z</time>
      </trkpt>
      <trkpt lat="47.05596" lon="5.44292">
        <ele>197.1</ele>
        <time>2020-05-27T10:48:18Z</time>
      </trkpt>
      <trkpt lat="47.05615" lon="5.44265">
        <ele>197.2</ele>
        <time>2020-05-27T10:48:19Z</time>
      </trkpt>
    </trkseg>
  </trk>
</gpx>